Time;durP1;ratioP1;P1;durP2;ratioP2;P2;SDS_P1;SDS_P2;PMS_P1;PMS_P2;Temp;Humidity;BMP_temperature;BMP_pressure;BME280_temperature;BME280_humidity;BME280_pressure;Samples;Min_cycle;Max_cycle;Signal;HPM_P1;HPM_P2
2022/04/25 00:00:16;;;;;;;;;;;10.60;92.90;;;;;;5057882;28;19932;-78
2022/04/25 00:02:42;;;;;;;;;;;10.60;92.90;;;;;;5058135;28;20308;-78
2022/04/25 00:05:09;;;;;;;;;;;10.60;92.90;;;;;;5058703;28;19995;-76
2022/04/25 00:07:37;;;;;;;;;;;10.60;92.90;;;;;;5056412;28;19928;-78
2022/04/25 00:10:04;;;;;;;;;;;10.60;92.90;;;;;;5060304;28;20329;-78
2022/04/25 00:12:31;;;;;;;;;;;10.60;92.90;;;;;;5061657;28;19928;-78
2022/04/25 00:14:57;;;;;;;;;;;10.50;92.90;;;;;;5058778;28;20214;-78
2022/04/25 00:17:25;;;;;;;;;;;10.60;92.90;;;;;;5062221;28;19932;-78
2022/04/25 00:19:51;;;;;;;;;;;10.60;92.80;;;;;;5056969;28;20440;-77
2022/04/25 00:22:18;;;;;;;;;;;10.60;92.80;;;;;;5053843;28;19939;-78
2022/04/25 00:24:47;;;;;;;;;;;10.60;92.80;;;;;;5059647;28;19929;-78
2022/04/25 00:27:14;;;;;;;;;;;10.60;92.80;;;;;;5055374;28;20026;-78
2022/04/25 00:29:41;;;;;;;;;;;10.50;92.70;;;;;;5060301;28;19932;-77
2022/04/25 00:32:08;;;;;;;;;;;10.60;92.70;;;;;;5057587;28;19936;-78
2022/04/25 00:34:36;;;;;;;;;;;10.50;92.70;;;;;;5060510;28;19936;-77
2022/04/25 00:37:03;;;;;;;;;;;10.50;92.70;;;;;;5061921;28;19980;-79
2022/04/25 00:39:30;;;;;;;;;;;10.50;92.70;;;;;;5058831;28;19933;-79
2022/04/25 00:41:56;;;;;;;;;;;10.50;92.60;;;;;;5060321;28;19928;-79
2022/04/25 00:44:23;;;;;;;;;;;10.50;92.60;;;;;;5058130;28;20397;-78
2022/04/25 00:46:51;;;;;;;;;;;10.50;92.60;;;;;;5057766;28;19935;-79
2022/04/25 00:49:18;;;;;;;;;;;10.50;92.60;;;;;;5059027;28;19933;-78
2022/04/25 00:51:46;;;;;;;;;;;10.50;92.60;;;;;;5059017;28;19928;-77
2022/04/25 00:54:13;;;;;;;;;;;10.50;92.60;;;;;;5057210;28;19928;-79
2022/04/25 00:56:40;;;;;;;;;;;10.50;92.60;;;;;;5056166;28;19932;-78
2022/04/25 00:59:07;;;;;;;;;;;10.50;92.60;;;;;;5058656;28;19980;-79
2022/04/25 01:01:35;;;;;;;;;;;10.50;92.50;;;;;;5055848;28;19936;-78
2022/04/25 01:04:01;;;;;;;;;;;10.50;92.50;;;;;;5058216;28;19939;-78
2022/04/25 01:06:28;;;;;;;;;;;10.50;92.50;;;;;;5058076;28;19942;-79
2022/04/25 01:08:56;;;;;;;;;;;10.50;92.50;;;;;;5050240;28;19929;-78
2022/04/25 01:11:23;;;;;;;;;;;10.50;92.40;;;;;;5057701;28;19932;-79
2022/04/25 01:13:49;;;;;;;;;;;10.40;92.40;;;;;;5061083;28;19935;-76
2022/04/25 01:16:16;;;;;;;;;;;10.50;92.70;;;;;;5057756;28;20929;-77
2022/04/25 01:18:43;;;;;;;;;;;10.40;92.40;;;;;;5056969;28;20010;-77
2022/04/25 01:21:10;;;;;;;;;;;10.50;92.40;;;;;;5054792;28;19942;-77
2022/04/25 01:29:07;;;;;;;;;;;10.40;92.30;;;;;;5059701;28;19932;-78
2022/04/25 01:31:33;;;;;;;;;;;10.40;92.30;;;;;;5061961;28;19932;-77
2022/04/25 01:34:00;;;;;;;;;;;10.40;92.30;;;;;;5060729;28;19936;-78
2022/04/25 01:36:26;;;;;;;;;;;10.40;92.30;;;;;;5056818;28;20778;-77
2022/04/25 01:38:55;;;;;;;;;;;10.40;92.30;;;;;;5056742;28;20363;-77
2022/04/25 01:41:21;;;;;;;;;;;10.40;92.30;;;;;;5059010;28;19962;-77
2022/04/25 01:43:48;;;;;;;;;;;10.40;92.30;;;;;;5058692;28;20313;-77
2022/04/25 01:46:14;;;;;;;;;;;10.40;92.30;;;;;;5056245;28;19924;-78
2022/04/25 01:48:41;;;;;;;;;;;10.40;92.30;;;;;;5058251;28;19929;-78
2022/04/25 01:51:07;;;;;;;;;;;10.40;92.30;;;;;;5058276;28;19939;-78
2022/04/25 01:53:34;;;;;;;;;;;10.40;92.20;;;;;;5057498;28;20030;-78
2022/04/25 01:56:02;;;;;;;;;;;10.30;92.20;;;;;;5056610;28;19932;-77
2022/04/25 01:58:28;;;;;;;;;;;10.30;92.20;;;;;;5057125;28;19928;-78
2022/04/25 02:00:55;;;;;;;;;;;10.30;92.20;;;;;;5055811;28;19958;-77
2022/04/25 02:03:22;;;;;;;;;;;10.30;92.30;;;;;;5058064;28;20335;-78
2022/04/25 02:05:48;;;;;;;;;;;10.30;92.20;;;;;;5057062;28;19933;-76
2022/04/25 02:08:15;;;;;;;;;;;10.30;92.20;;;;;;5050950;28;19928;-78
2022/04/25 02:11:19;;;;;;;;;;;10.30;92.20;;;;;;5057689;28;19931;-78
2022/04/25 02:13:29;;;;;;;;;;;10.30;92.10;;;;;;5055378;28;19982;-77
2022/04/25 02:15:56;;;;;;;;;;;10.30;92.10;;;;;;5052008;28;19928;-78
2022/04/25 02:18:23;;;;;;;;;;;10.20;92.10;;;;;;5057354;28;20559;-79
2022/04/25 02:20:49;;;;;;;;;;;10.20;92.10;;;;;;5053709;28;20320;-77
2022/04/25 02:23:16;;;;;;;;;;;10.20;92.10;;;;;;5055094;28;19935;-78
2022/04/25 02:25:43;;;;;;;;;;;10.20;92.10;;;;;;5056381;28;20590;-77
2022/04/25 02:28:09;;;;;;;;;;;10.20;92.10;;;;;;5054652;28;19928;-77
2022/04/25 02:30:37;;;;;;;;;;;10.10;92.10;;;;;;5053600;28;19928;-77
2022/04/25 02:33:04;;;;;;;;;;;10.10;92.10;;;;;;5056796;28;19939;-78
2022/04/25 02:35:30;;;;;;;;;;;10.10;92.10;;;;;;5060955;28;19932;-76
2022/04/25 02:37:57;;;;;;;;;;;10.10;92.10;;;;;;5055444;28;20666;-77
2022/04/25 02:40:24;;;;;;;;;;;10.10;92.10;;;;;;5055773;28;19928;-78
2022/04/25 02:42:50;;;;;;;;;;;10.10;92.10;;;;;;5056742;28;20387;-78
2022/04/25 02:45:17;;;;;;;;;;;10.00;92.00;;;;;;5052538;28;19936;-78
2022/04/25 02:47:44;;;;;;;;;;;10.00;92.10;;;;;;5055066;28;19940;-76
2022/04/25 02:50:11;;;;;;;;;;;10.10;92.10;;;;;;5056663;28;20011;-75
2022/04/25 02:52:38;;;;;;;;;;;10.00;92.10;;;;;;5056596;28;19928;-76
2022/04/25 02:55:05;;;;;;;;;;;10.00;92.10;;;;;;5057998;28;20090;-75
2022/04/25 02:57:31;;;;;;;;;;;10.00;92.10;;;;;;5058446;28;20014;-78
2022/04/25 02:59:58;;;;;;;;;;;10.00;92.10;;;;;;5056246;28;20440;-77
2022/04/25 03:02:25;;;;;;;;;;;10.00;92.10;;;;;;5056710;28;19928;-77
2022/04/25 03:04:53;;;;;;;;;;;10.00;92.10;;;;;;5057454;28;19929;-77
2022/04/25 03:07:19;;;;;;;;;;;9.90;92.00;;;;;;5055344;28;19929;-78
2022/04/25 03:09:46;;;;;;;;;;;9.90;92.00;;;;;;5056531;28;20253;-78
2022/04/25 03:12:12;;;;;;;;;;;9.90;92.00;;;;;;5058026;28;20359;-78
2022/04/25 03:14:39;;;;;;;;;;;9.90;92.00;;;;;;5057357;28;20419;-76
2022/04/25 03:17:06;;;;;;;;;;;9.80;92.00;;;;;;5054389;28;20312;-75
2022/04/25 03:19:32;;;;;;;;;;;9.80;92.00;;;;;;5056272;28;20571;-78
2022/04/25 03:22:01;;;;;;;;;;;9.80;92.00;;;;;;5052555;28;20308;-77
2022/04/25 03:24:27;;;;;;;;;;;9.70;91.90;;;;;;5053261;28;20695;-77
2022/04/25 03:26:55;;;;;;;;;;;9.70;91.90;;;;;;5054513;28;19940;-77
2022/04/25 03:29:21;;;;;;;;;;;9.70;91.90;;;;;;5056337;28;19932;-78
2022/04/25 03:31:48;;;;;;;;;;;9.70;91.90;;;;;;5054327;28;19932;-77
2022/04/25 03:34:14;;;;;;;;;;;9.70;91.90;;;;;;5053937;28;20012;-77
2022/04/25 03:36:44;;;;;;;;;;;9.70;91.90;;;;;;5056174;28;20308;-77
2022/04/25 03:39:12;;;;;;;;;;;9.60;91.90;;;;;;5054029;28;19932;-77
2022/04/25 03:41:38;;;;;;;;;;;9.60;91.90;;;;;;5056059;28;20336;-76
2022/04/25 03:44:05;;;;;;;;;;;9.60;91.90;;;;;;5054593;28;20411;-77
2022/04/25 03:46:31;;;;;;;;;;;9.60;91.90;;;;;;5055359;28;19929;-79
2022/04/25 03:48:58;;;;;;;;;;;9.60;91.90;;;;;;5055252;28;19929;-78
2022/04/25 03:51:25;;;;;;;;;;;9.60;91.90;;;;;;5057397;28;19937;-77
2022/04/25 03:53:51;;;;;;;;;;;9.50;91.90;;;;;;5053882;28;19936;-77
2022/04/25 03:59:03;;;;;;;;;;;9.50;91.90;;;;;;5054181;28;19935;-77
2022/04/25 04:01:31;;;;;;;;;;;9.50;91.90;;;;;;5055589;28;19944;-78
2022/04/25 04:04:02;;;;;;;;;;;9.50;91.90;;;;;;5050267;28;19932;-78
2022/04/25 04:06:29;;;;;;;;;;;9.50;91.90;;;;;;5050750;28;19929;-77
2022/04/25 04:08:55;;;;;;;;;;;9.40;91.90;;;;;;5053051;28;19939;-78
2022/04/25 04:11:23;;;;;;;;;;;9.40;91.90;;;;;;5054855;28;19940;-78
2022/04/25 04:13:50;;;;;;;;;;;9.40;91.90;;;;;;5054053;28;19933;-75
2022/04/25 04:16:16;;;;;;;;;;;9.40;91.90;;;;;;5051773;28;19939;-77
2022/04/25 04:18:43;;;;;;;;;;;9.40;91.90;;;;;;5053350;28;19965;-77
2022/04/25 04:21:10;;;;;;;;;;;9.40;91.90;;;;;;5052165;28;19928;-75
2022/04/25 04:23:37;;;;;;;;;;;9.40;91.90;;;;;;5055622;28;19967;-76
2022/04/25 04:26:03;;;;;;;;;;;9.30;91.90;;;;;;5052611;28;19936;-78
2022/04/25 04:28:31;;;;;;;;;;;9.30;91.90;;;;;;5055382;28;19928;-76
2022/04/25 04:30:57;;;;;;;;;;;9.30;91.90;;;;;;5055580;28;19933;-76
2022/04/25 04:33:24;;;;;;;;;;;9.30;91.90;;;;;;5060270;28;20403;-76
2022/04/25 04:38:35;;;;;;;;;;;9.30;91.90;;;;;;5059336;28;19993;-76
2022/04/25 04:41:01;;;;;;;;;;;9.20;91.90;;;;;;5055900;28;20627;-77
2022/04/25 04:46:05;;;;;;;;;;;9.20;91.90;;;;;;5017551;28;19933;-76
2022/04/25 04:48:31;;;;;;;;;;;9.20;92.00;;;;;;5021228;28;20300;-73
2022/04/25 04:50:58;;;;;;;;;;;9.20;92.00;;;;;;5017846;28;19933;-72
2022/04/25 04:53:24;;;;;;;;;;;9.20;92.00;;;;;;5020848;28;19932;-74
2022/04/25 04:55:52;;;;;;;;;;;9.20;92.00;;;;;;5016686;28;19970;-72
2022/04/25 04:58:18;;;;;;;;;;;9.10;92.00;;;;;;5018529;28;19933;-74
2022/04/25 05:00:46;;;;;;;;;;;9.20;92.00;;;;;;5015687;28;19937;-74
2022/04/25 05:03:15;;;;;;;;;;;9.20;92.00;;;;;;5012726;28;19929;-74
2022/04/25 05:05:42;;;;;;;;;;;9.20;92.10;;;;;;5017211;28;19971;-74
2022/04/25 05:08:08;;;;;;;;;;;9.20;92.10;;;;;;5018774;28;19940;-74
2022/04/25 05:10:35;;;;;;;;;;;9.10;92.00;;;;;;5016469;28;19929;-74
2022/04/25 05:13:01;;;;;;;;;;;9.10;92.10;;;;;;5019549;28;19940;-74
2022/04/25 05:15:28;;;;;;;;;;;9.10;92.00;;;;;;5019403;28;20023;-74
2022/04/25 05:17:55;;;;;;;;;;;9.10;92.10;;;;;;5019955;28;19929;-74
2022/04/25 05:20:24;;;;;;;;;;;9.10;92.00;;;;;;5018396;28;20246;-72
2022/04/25 05:22:51;;;;;;;;;;;9.10;92.10;;;;;;5018998;28;19951;-74
2022/04/25 05:25:18;;;;;;;;;;;9.10;92.10;;;;;;5018309;28;20341;-66
2022/04/25 05:27:45;;;;;;;;;;;9.10;92.00;;;;;;5020482;28;19933;-66
2022/04/25 05:30:13;;;;;;;;;;;9.10;92.10;;;;;;5021106;28;20306;-66
2022/04/25 05:32:43;;;;;;;;;;;9.10;92.10;;;;;;5020688;28;19944;-65
2022/04/25 05:35:09;;;;;;;;;;;9.10;92.10;;;;;;5030415;28;19937;-65
2022/04/25 05:37:37;;;;;;;;;;;9.00;92.10;;;;;;5015596;28;19933;-65
2022/04/25 05:40:04;;;;;;;;;;;9.00;92.10;;;;;;5014142;28;19948;-66
2022/04/25 05:42:31;;;;;;;;;;;9.00;92.10;;;;;;5021674;28;19930;-66
2022/04/25 05:44:58;;;;;;;;;;;9.00;92.10;;;;;;5021976;28;19933;-66
2022/04/25 05:47:25;;;;;;;;;;;9.00;92.10;;;;;;5019647;28;20480;-66
2022/04/25 05:52:37;;;;;;;;;;;9.00;92.10;;;;;;5019091;28;19932;-65
2022/04/25 05:55:04;;;;;;;;;;;9.00;92.10;;;;;;5019301;28;19934;-65
2022/04/25 05:57:31;;;;;;;;;;;9.00;92.10;;;;;;5023602;28;19936;-66
2022/04/25 05:59:57;;;;;;;;;;;9.00;92.10;;;;;;5013041;28;20040;-65
2022/04/25 06:02:24;;;;;;;;;;;9.00;92.10;;;;;;5017162;28;19929;-65
2022/04/25 06:04:50;;;;;;;;;;;9.00;92.10;;;;;;5025882;28;19933;-66
2022/04/25 06:07:17;;;;;;;;;;;9.00;92.10;;;;;;5015985;28;19936;-66
2022/04/25 06:09:45;;;;;;;;;;;8.90;92.10;;;;;;5018619;28;19929;-66
2022/04/25 06:12:12;;;;;;;;;;;9.00;92.10;;;;;;5012440;28;20951;-73
2022/04/25 06:14:40;;;;;;;;;;;9.00;92.10;;;;;;4997082;28;19933;-73
2022/04/25 06:17:07;;;;;;;;;;;9.00;92.10;;;;;;5014503;28;19936;-73
2022/04/25 06:19:33;;;;;;;;;;;9.00;92.10;;;;;;5013186;28;19933;-74
2022/04/25 06:22:00;;;;;;;;;;;9.00;92.10;;;;;;5013751;28;19945;-74
2022/04/25 06:24:27;;;;;;;;;;;9.00;92.10;;;;;;5014378;28;20296;-73
2022/04/25 06:26:55;;;;;;;;;;;9.00;92.10;;;;;;5015993;28;19929;-74
2022/04/25 06:29:22;;;;;;;;;;;9.00;92.10;;;;;;5011913;28;20625;-74
2022/04/25 06:31:49;;;;;;;;;;;9.00;92.10;;;;;;5015761;28;19933;-73
2022/04/25 06:34:15;;;;;;;;;;;9.00;92.10;;;;;;5015692;28;19929;-73
2022/04/25 06:36:42;;;;;;;;;;;9.00;92.10;;;;;;5013917;28;19929;-74
2022/04/25 06:39:08;;;;;;;;;;;9.00;92.10;;;;;;5014024;28;20008;-72
2022/04/25 06:41:35;;;;;;;;;;;9.00;92.10;;;;;;5018163;28;20040;-73
2022/04/25 06:44:03;;;;;;;;;;;9.00;92.20;;;;;;5016182;28;19929;-73
2022/04/25 06:46:30;;;;;;;;;;;9.00;92.20;;;;;;5015641;28;20397;-74
2022/04/25 06:51:40;;;;;;;;;;;9.00;92.20;;;;;;5014831;28;20145;-73
2022/04/25 06:54:07;;;;;;;;;;;9.10;92.20;;;;;;5014219;28;19929;-73
2022/04/25 06:56:35;;;;;;;;;;;9.10;92.20;;;;;;5017206;28;20044;-74
2022/04/25 06:59:03;;;;;;;;;;;9.10;92.20;;;;;;5017259;28;19939;-73
2022/04/25 07:01:29;;;;;;;;;;;9.10;92.20;;;;;;5011593;28;20367;-73
2022/04/25 07:03:56;;;;;;;;;;;9.20;92.20;;;;;;5015758;28;20740;-73
2022/04/25 07:06:22;;;;;;;;;;;9.20;92.20;;;;;;5015239;28;19937;-74
2022/04/25 07:08:49;;;;;;;;;;;9.20;92.30;;;;;;5014268;28;19936;-74
2022/04/25 07:11:15;;;;;;;;;;;9.20;92.40;;;;;;5013670;28;19937;-73
2022/04/25 07:13:42;;;;;;;;;;;9.20;92.30;;;;;;5015817;28;20205;-74
2022/04/25 07:16:12;;;;;;;;;;;9.30;92.20;;;;;;5013926;28;20425;-75
2022/04/25 07:18:38;;;;;;;;;;;9.30;92.20;;;;;;5015733;28;19940;-76
2022/04/25 07:28:48;;;;;;;;;;;9.30;92.20;;;;;;5012466;28;19929;-76
2022/04/25 07:29:20;;;;;;;;;;;9.30;92.00;;;;;;4987573;28;20418;-77
2022/04/25 07:31:48;;;;;;;;;;;9.40;92.00;;;;;;5015744;28;19983;-75
2022/04/25 07:34:14;;;;;;;;;;;9.40;92.10;;;;;;5015535;28;20716;-77
2022/04/25 07:36:41;;;;;;;;;;;9.40;92.10;;;;;;5016525;28;19940;-74
2022/04/25 07:39:07;;;;;;;;;;;9.40;92.10;;;;;;5018146;28;19937;-73
2022/04/25 07:41:34;;;;;;;;;;;9.40;92.10;;;;;;5014697;28;19933;-66
2022/04/25 07:44:01;;;;;;;;;;;9.40;92.20;;;;;;5014345;28;20386;-66
2022/04/25 07:46:28;;;;;;;;;;;9.50;92.20;;;;;;5013445;28;19933;-65
2022/04/25 07:48:59;;;;;;;;;;;9.50;92.20;;;;;;5021042;28;20122;-66
2022/04/25 07:51:25;;;;;;;;;;;9.50;92.20;;;;;;5016801;28;19929;-66
2022/04/25 07:53:52;;;;;;;;;;;9.60;92.30;;;;;;5015030;28;19937;-65
2022/04/25 07:56:18;;;;;;;;;;;9.60;92.40;;;;;;5021109;28;19933;-66
2022/04/25 07:58:45;;;;;;;;;;;9.60;92.40;;;;;;5018791;28;19929;-66
2022/04/25 08:01:12;;;;;;;;;;;9.70;92.50;;;;;;5014562;28;19949;-66
2022/04/25 08:03:39;;;;;;;;;;;9.70;92.60;;;;;;5018271;28;19982;-65
2022/04/25 08:06:07;;;;;;;;;;;9.80;92.60;;;;;;5028086;28;19929;-66
2022/04/25 08:08:33;;;;;;;;;;;9.80;92.60;;;;;;5017621;28;19929;-66
2022/04/25 08:11:00;;;;;;;;;;;9.80;92.50;;;;;;5018161;28;20469;-65
2022/04/25 08:18:55;;;;;;;;;;;10.00;92.50;;;;;;5023149;28;19946;-66
2022/04/25 08:21:23;;;;;;;;;;;10.00;92.50;;;;;;5018950;28;19936;-66
2022/04/25 08:23:49;;;;;;;;;;;10.10;92.50;;;;;;5021095;28;19933;-66
2022/04/25 08:26:16;;;;;;;;;;;10.10;92.50;;;;;;5020679;28;19933;-66
2022/04/25 08:28:42;;;;;;;;;;;10.10;92.40;;;;;;5019737;28;20380;-66
2022/04/25 08:31:10;;;;;;;;;;;10.10;92.30;;;;;;5017476;28;19936;-65
2022/04/25 08:33:36;;;;;;;;;;;10.20;92.20;;;;;;5020207;28;20012;-67
2022/04/25 08:36:03;;;;;;;;;;;10.30;92.10;;;;;;5023148;28;19964;-69
2022/04/25 08:38:31;;;;;;;;;;;10.30;92.00;;;;;;5018898;28;19940;-69
2022/04/25 08:40:58;;;;;;;;;;;10.30;92.30;;;;;;5022029;28;19936;-69
2022/04/25 08:43:24;;;;;;;;;;;10.40;91.90;;;;;;5024471;28;19929;-69
2022/04/25 08:45:53;;;;;;;;;;;10.40;91.80;;;;;;5020186;28;19995;-69
2022/04/25 08:48:20;;;;;;;;;;;10.50;91.80;;;;;;5019254;28;20789;-69
2022/04/25 08:50:49;;;;;;;;;;;10.50;91.80;;;;;;5019676;28;20711;-69
2022/04/25 08:53:16;;;;;;;;;;;10.50;92.10;;;;;;5028604;28;19990;-68
2022/04/25 08:55:45;;;;;;;;;;;10.60;91.80;;;;;;5018946;28;19929;-69
2022/04/25 08:58:12;;;;;;;;;;;10.60;91.70;;;;;;5022784;28;19936;-67
2022/04/25 09:00:39;;;;;;;;;;;10.70;91.50;;;;;;5017462;28;20059;-68
2022/04/25 09:03:05;;;;;;;;;;;10.70;91.30;;;;;;5020535;28;19929;-68
2022/04/25 09:05:32;;;;;;;;;;;10.70;91.20;;;;;;5012212;28;19933;-68
2022/04/25 09:07:59;;;;;;;;;;;10.80;91.20;;;;;;5016384;28;19937;-68
2022/04/25 09:10:26;;;;;;;;;;;10.80;91.10;;;;;;5021484;28;20457;-69
2022/04/25 09:12:54;;;;;;;;;;;10.80;91.00;;;;;;5020068;28;19935;-67
2022/04/25 09:15:21;;;;;;;;;;;10.90;90.90;;;;;;5019146;28;19939;-68
2022/04/25 09:17:48;;;;;;;;;;;10.90;90.80;;;;;;5020831;28;19929;-68
2022/04/25 09:20:14;;;;;;;;;;;10.90;90.70;;;;;;5020320;28;19933;-68
2022/04/25 09:22:41;;;;;;;;;;;10.90;90.60;;;;;;5021094;28;19972;-67
2022/04/25 09:25:09;;;;;;;;;;;11.00;90.60;;;;;;5020793;28;19928;-67
2022/04/25 09:27:36;;;;;;;;;;;11.00;90.50;;;;;;5016366;28;19929;-69
2022/04/25 09:30:14;;;;;;;;;;;11.00;90.50;;;;;;5016858;28;20602;-67
2022/04/25 09:32:41;;;;;;;;;;;11.10;90.50;;;;;;5015505;28;20016;-68
2022/04/25 09:35:27;;;;;;;;;;;11.20;90.40;;;;;;5018641;28;19933;-67
2022/04/25 09:37:54;;;;;;;;;;;11.20;90.30;;;;;;5022500;28;20389;-68
2022/04/25 09:40:21;;;;;;;;;;;11.30;90.20;;;;;;5018202;28;19940;-68
2022/04/25 09:42:48;;;;;;;;;;;11.30;90.10;;;;;;5020076;28;19929;-68
2022/04/25 09:45:16;;;;;;;;;;;11.30;90.00;;;;;;5018090;28;19936;-68
2022/04/25 09:47:44;;;;;;;;;;;11.40;90.00;;;;;;5019928;28;19933;-67
2022/04/25 09:50:12;;;;;;;;;;;11.40;90.00;;;;;;5019500;28;19933;-68
2022/04/25 09:52:52;;;;;;;;;;;11.40;89.90;;;;;;5018524;28;19929;-67
2022/04/25 09:55:19;;;;;;;;;;;11.50;89.70;;;;;;5018662;28;19933;-68
2022/04/25 09:57:46;;;;;;;;;;;11.50;89.50;;;;;;5017698;28;19929;-67
2022/04/25 10:00:14;;;;;;;;;;;11.60;89.50;;;;;;5015190;28;19932;-68
2022/04/25 10:02:42;;;;;;;;;;;11.60;89.20;;;;;;5020535;28;19980;-69
2022/04/25 10:05:13;;;;;;;;;;;11.60;89.10;;;;;;5014048;28;19984;-68
2022/04/25 10:07:40;;;;;;;;;;;11.60;89.50;;;;;;5018233;28;19936;-66
2022/04/25 10:10:09;;;;;;;;;;;11.70;88.70;;;;;;5010489;28;19929;-67
2022/04/25 10:12:36;;;;;;;;;;;11.70;88.60;;;;;;5019536;28;19944;-68
2022/04/25 10:15:03;;;;;;;;;;;11.80;88.50;;;;;;5019353;28;20024;-67
2022/04/25 10:17:30;;;;;;;;;;;11.80;88.20;;;;;;5018121;28;20385;-68
2022/04/25 10:19:58;;;;;;;;;;;11.90;88.20;;;;;;5017334;28;19936;-67
2022/04/25 10:22:25;;;;;;;;;;;11.90;88.10;;;;;;5017220;28;20290;-68
2022/04/25 10:24:52;;;;;;;;;;;11.90;88.00;;;;;;5018648;28;19935;-68
2022/04/25 10:27:19;;;;;;;;;;;12.00;87.80;;;;;;5011365;28;19933;-67
2022/04/25 10:29:47;;;;;;;;;;;12.00;87.60;;;;;;5021009;28;19960;-68
2022/04/25 10:32:17;;;;;;;;;;;12.10;87.40;;;;;;5019173;28;20672;-68
2022/04/25 10:34:47;;;;;;;;;;;12.10;87.20;;;;;;5019457;28;19936;-68
2022/04/25 10:37:31;;;;;;;;;;;12.10;86.90;;;;;;5019599;28;20099;-68
2022/04/25 10:39:58;;;;;;;;;;;12.20;86.90;;;;;;5016871;28;20267;-68
2022/04/25 10:45:09;;;;;;;;;;;12.30;86.70;;;;;;5016828;28;19975;-68
2022/04/25 10:47:36;;;;;;;;;;;12.30;86.60;;;;;;5021199;28;19928;-68
2022/04/25 10:50:04;;;;;;;;;;;12.30;86.40;;;;;;5017192;28;19929;-67
2022/04/25 10:53:01;;;;;;;;;;;12.40;86.30;;;;;;5021230;28;19933;-67
2022/04/25 10:55:35;;;;;;;;;;;12.40;86.20;;;;;;5014622;28;20048;-67
2022/04/25 10:58:12;;;;;;;;;;;12.50;86.10;;;;;;5020227;28;19933;-67
2022/04/25 11:00:57;;;;;;;;;;;12.50;86.00;;;;;;5010002;28;19929;-67
2022/04/25 11:03:28;;;;;;;;;;;12.50;85.90;;;;;;5017639;28;20745;-68
2022/04/25 11:05:56;;;;;;;;;;;12.60;85.80;;;;;;5023850;28;19929;-67
2022/04/25 11:08:24;;;;;;;;;;;12.60;85.70;;;;;;5020942;28;19932;-76
2022/04/25 11:10:52;;;;;;;;;;;12.60;85.70;;;;;;5024188;28;19929;-79
2022/04/25 11:13:19;;;;;;;;;;;12.70;85.70;;;;;;5017556;28;19933;-78
2022/04/25 11:15:46;;;;;;;;;;;12.70;85.60;;;;;;5010644;28;19929;-78
2022/04/25 11:18:22;;;;;;;;;;;12.70;85.50;;;;;;5015628;28;19929;-77
2022/04/25 11:20:55;;;;;;;;;;;12.70;85.40;;;;;;5011891;28;19929;-78
2022/04/25 11:23:26;;;;;;;;;;;12.70;85.20;;;;;;5011529;28;19937;-78
2022/04/25 11:25:55;;;;;;;;;;;12.80;85.20;;;;;;5011711;28;20693;-78
2022/04/25 11:28:22;;;;;;;;;;;12.80;85.00;;;;;;5013214;28;19968;-78
2022/04/25 11:31:03;;;;;;;;;;;12.90;84.80;;;;;;5013095;28;19933;-78
2022/04/25 11:33:40;;;;;;;;;;;12.90;84.70;;;;;;5012773;28;19929;-78
2022/04/25 11:36:07;;;;;;;;;;;13.00;84.70;;;;;;5017859;28;19932;-76
2022/04/25 11:41:21;;;;;;;;;;;13.10;84.20;;;;;;5022202;28;19979;-77
2022/04/25 11:43:48;;;;;;;;;;;13.10;84.00;;;;;;5021823;28;19940;-77
2022/04/25 11:46:15;;;;;;;;;;;13.20;83.80;;;;;;5018417;28;19945;-77
2022/04/25 11:48:41;;;;;;;;;;;13.30;83.60;;;;;;5020809;28;19929;-77
2022/04/25 11:51:08;;;;;;;;;;;13.30;83.20;;;;;;5023297;28;19928;-77
2022/04/25 11:53:37;;;;;;;;;;;13.40;83.20;;;;;;5025181;28;19925;-77
2022/04/25 11:56:16;;;;;;;;;;;13.40;83.10;;;;;;5024463;28;19936;-77
2022/04/25 11:58:43;;;;;;;;;;;13.50;82.90;;;;;;5025684;28;19944;-77
2022/04/25 12:01:10;;;;;;;;;;;13.50;82.70;;;;;;5016327;28;19929;-77
2022/04/25 12:03:37;;;;;;;;;;;13.60;82.40;;;;;;5022277;28;19944;-77
2022/04/25 12:06:12;;;;;;;;;;;13.60;82.00;;;;;;5023662;28;20011;-77
2022/04/25 12:17:01;;;;;;;;;;;13.70;81.40;;;;;;4987451;28;20608;-78
2022/04/25 12:19:28;;;;;;;;;;;13.80;81.30;;;;;;5027415;28;20105;-76
2022/04/25 12:21:59;;;;;;;;;;;13.70;81.20;;;;;;5024704;28;19929;-77
2022/04/25 12:24:27;;;;;;;;;;;13.80;81.20;;;;;;5021998;28;20452;-77
2022/04/25 12:26:54;;;;;;;;;;;13.80;81.20;;;;;;5028005;28;19929;-78
2022/04/25 12:29:20;;;;;;;;;;;13.80;81.10;;;;;;5022064;28;20230;-77
2022/04/25 12:31:47;;;;;;;;;;;13.80;81.00;;;;;;5025975;28;19936;-78
2022/04/25 12:34:14;;;;;;;;;;;13.90;81.00;;;;;;5020816;28;19929;-78
2022/04/25 12:36:53;;;;;;;;;;;13.90;80.90;;;;;;5023008;28;19933;-78
2022/04/25 12:39:19;;;;;;;;;;;13.90;80.60;;;;;;5022061;28;19929;-78
2022/04/25 12:41:54;;;;;;;;;;;13.90;80.10;;;;;;5022544;28;19929;-78
2022/04/25 12:44:21;;;;;;;;;;;14.00;80.00;;;;;;5018984;28;20004;-78
2022/04/25 12:46:49;;;;;;;;;;;14.10;80.00;;;;;;5025504;28;19929;-78
2022/04/25 12:49:16;;;;;;;;;;;14.10;79.60;;;;;;5026217;28;19996;-78
2022/04/25 12:51:58;;;;;;;;;;;14.20;79.30;;;;;;5025551;28;19933;-78
2022/04/25 12:54:26;;;;;;;;;;;14.20;79.20;;;;;;5024762;28;19968;-77
2022/04/25 12:56:55;;;;;;;;;;;14.40;79.20;;;;;;5021057;28;19933;-76
2022/04/25 12:59:26;;;;;;;;;;;14.40;78.90;;;;;;5028924;28;19929;-76
2022/04/25 13:02:01;;;;;;;;;;;14.50;79.00;;;;;;5018316;28;19940;-68
2022/04/25 13:04:28;;;;;;;;;;;14.50;78.70;;;;;;5020499;28;19936;-65
2022/04/25 13:06:54;;;;;;;;;;;14.50;78.50;;;;;;5022759;28;19929;-68
2022/04/25 13:09:21;;;;;;;;;;;14.50;78.40;;;;;;5022803;28;20400;-67
2022/04/25 13:11:47;;;;;;;;;;;14.50;78.40;;;;;;5023023;28;19936;-68
2022/04/25 13:14:15;;;;;;;;;;;14.60;78.50;;;;;;5018030;28;19936;-68
2022/04/25 13:16:42;;;;;;;;;;;14.60;78.50;;;;;;5018176;28;19929;-69
2022/04/25 13:19:08;;;;;;;;;;;14.60;78.50;;;;;;5020808;28;19937;-66
2022/04/25 13:21:39;;;;;;;;;;;14.50;78.30;;;;;;5020364;28;19932;-68
2022/04/25 13:24:05;;;;;;;;;;;14.50;78.20;;;;;;5023602;28;19925;-67
2022/04/25 13:26:32;;;;;;;;;;;14.50;78.30;;;;;;5022317;28;20163;-68
2022/04/25 13:28:58;;;;;;;;;;;14.50;78.60;;;;;;5018756;28;20593;-67
2022/04/25 13:31:26;;;;;;;;;;;14.50;78.80;;;;;;5020884;28;19929;-67
2022/04/25 13:33:53;;;;;;;;;;;14.50;79.30;;;;;;5020245;28;19932;-68
2022/04/25 13:36:19;;;;;;;;;;;14.50;79.40;;;;;;5022115;28;19940;-68
2022/04/25 13:38:46;;;;;;;;;;;14.50;79.60;;;;;;5018172;28;19925;-67
2022/04/25 13:41:12;;;;;;;;;;;14.40;80.10;;;;;;5020220;28;19937;-67
2022/04/25 13:43:39;;;;;;;;;;;14.40;80.40;;;;;;5022124;28;19999;-66
2022/04/25 13:46:05;;;;;;;;;;;14.30;80.60;;;;;;5010383;28;19939;-67
2022/04/25 13:48:33;;;;;;;;;;;14.30;81.30;;;;;;5017265;28;20397;-67
2022/04/25 13:51:00;;;;;;;;;;;14.30;81.80;;;;;;5008916;28;20413;-68
2022/04/25 13:53:26;;;;;;;;;;;14.20;82.20;;;;;;5018914;28;20456;-67
2022/04/25 13:55:53;;;;;;;;;;;14.30;82.70;;;;;;5014596;28;19937;-68
2022/04/25 13:58:19;;;;;;;;;;;14.30;83.00;;;;;;5015549;28;19933;-67
2022/04/25 14:00:46;;;;;;;;;;;14.20;83.20;;;;;;5017517;28;19929;-67
2022/04/25 14:03:13;;;;;;;;;;;14.20;83.40;;;;;;5022789;28;19979;-67
2022/04/25 14:05:42;;;;;;;;;;;14.10;83.50;;;;;;5029245;28;19929;-67
2022/04/25 14:08:09;;;;;;;;;;;14.20;83.70;;;;;;5016017;28;20418;-67
2022/04/25 14:10:37;;;;;;;;;;;14.10;83.80;;;;;;5022093;28;19936;-66
2022/04/25 14:13:05;;;;;;;;;;;14.10;83.80;;;;;;5021734;28;21009;-67
2022/04/25 14:15:32;;;;;;;;;;;14.00;83.90;;;;;;5013799;28;19943;-67
2022/04/25 14:17:58;;;;;;;;;;;14.00;84.20;;;;;;5017869;28;19948;-67
2022/04/25 14:20:25;;;;;;;;;;;14.00;84.40;;;;;;5017131;28;19929;-68
2022/04/25 14:22:54;;;;;;;;;;;14.00;84.60;;;;;;5019340;28;19933;-67
2022/04/25 14:25:21;;;;;;;;;;;13.90;84.80;;;;;;5020354;28;19964;-68
2022/04/25 14:27:47;;;;;;;;;;;13.90;85.20;;;;;;5021560;28;19929;-67
2022/04/25 14:30:14;;;;;;;;;;;13.90;85.30;;;;;;5015893;28;19967;-67
2022/04/25 14:32:41;;;;;;;;;;;13.90;85.70;;;;;;5021366;28;19929;-67
2022/04/25 14:35:08;;;;;;;;;;;13.80;86.00;;;;;;5017879;28;19940;-66
2022/04/25 14:37:34;;;;;;;;;;;13.80;86.20;;;;;;5020059;28;19936;-67
2022/04/25 14:40:02;;;;;;;;;;;13.90;86.40;;;;;;5017909;28;19936;-66
2022/04/25 14:42:29;;;;;;;;;;;13.80;86.80;;;;;;5018379;28;23029;-67
2022/04/25 14:44:56;;;;;;;;;;;13.80;86.80;;;;;;5015942;28;19930;-67
2022/04/25 14:47:22;;;;;;;;;;;13.80;87.00;;;;;;5015626;28;20297;-67
2022/04/25 14:55:20;;;;;;;;;;;13.70;86.50;;;;;;5015069;28;19987;-66
2022/04/25 14:57:48;;;;;;;;;;;13.70;86.80;;;;;;5021230;28;19925;-67
2022/04/25 15:00:15;;;;;;;;;;;13.70;86.80;;;;;;5013840;28;19929;-67
2022/04/25 15:02:42;;;;;;;;;;;13.70;87.00;;;;;;5021987;28;19938;-67
2022/04/25 15:05:09;;;;;;;;;;;13.70;86.90;;;;;;5018278;28;20337;-66
2022/04/25 15:07:35;;;;;;;;;;;13.70;87.00;;;;;;5017991;28;19937;-67
2022/04/25 15:10:02;;;;;;;;;;;13.70;86.40;;;;;;5015930;28;19929;-67
2022/04/25 15:12:30;;;;;;;;;;;13.70;86.10;;;;;;5025161;28;19941;-67